Genco Leader — VRYR8 — position and weather

sailwx.info

Track history (hours):
 
Tides and Currents Weather Stations Pressure Air Temp Water Temp Dewpoint Dewpoint Depression Visibility Wind Speed Wind Dir Waves Ship Positions

Genco Leader

Last reported at 2016-Jul-15 09:25 UTC. Time now 2016-Jul-29 05:59 UTC.
Position N 01°56' E 102°18'.
Warning: this ship's position is 13 days out of date.

Length 225 m; draft 14.2 m.

Type: Cargo ship. MMSI: 477132000.

Date/timePositionNaut miles runAvg speedWind from/ knotsBaromVisibWave heightAir tempDewpointWater temp
2016-Jul-15 09:25N 01°56' E 102°18'910.0
2016-Jul-15 08:30N 01°52' E 102°26'1110.2
2016-Jul-15 07:26N 01°48' E 102°36'910.6
2016-Jul-15 06:32N 01°44' E 102°45'6510.4
2016-Jul-15 00:18N 01°10' E 103°40'7 9.1
2016-Jul-14 23:32N 01°10' E 103°47'1010.4
2016-Jul-14 22:33N 01°14' E 103°57'3 2.1
2016-Jul-14 21:20N 01°17' E 103°58'0 0.0
2016-Jul-14 20:26N 01°17' E 103°58'0 0.0
2016-Jul-14 19:26N 01°17' E 103°58'0 0.0
2016-Jul-14 18:26N 01°17' E 103°58'0 0.0
2016-Jul-14 17:32N 01°17' E 103°58'0 0.0
2016-Jul-14 16:17N 01°17' E 103°58'0 0.0
2016-Jul-14 14:20N 01°17' E 103°58'0 0.0
2016-Jul-14 12:26N 01°17' E 103°58'0 0.1
2016-Jul-14 11:32N 01°17' E 103°58'0 0.1
2016-Jul-14 09:32N 01°17' E 103°58'0 0.0
2016-Jul-14 08:20N 01°17' E 103°58'0 0.0
2016-Jul-14 07:29N 01°17' E 103°58'1 1.3
2016-Jul-14 06:33N 01°15' E 103°57'5 4.7
2016-Jul-14 05:33N 01°16' E 104°02'  
Track history (hours):
 
Tides and Currents Weather Stations Pressure Air Temp Water Temp Dewpoint Dewpoint Depression Visibility Wind Speed Wind Dir Waves Ship Positions

Genco Leader

Last reported at 2016-Jul-15 09:25 UTC. Time now 2016-Jul-29 05:59 UTC.
Position N 01°56' E 102°18'.
Warning: this ship's position is 13 days out of date.

Length 225 m; draft 14.2 m.

Type: Cargo ship. MMSI: 477132000.

Date/timePositionNaut miles runAvg speedWind from/ knotsBaromVisibWave heightAir tempDewpointWater temp
2016-Jul-15 09:25N 01°56' E 102°18'910.0
2016-Jul-15 08:30N 01°52' E 102°26'1110.2
2016-Jul-15 07:26N 01°48' E 102°36'910.6
2016-Jul-15 06:32N 01°44' E 102°45'6510.4
2016-Jul-15 00:18N 01°10' E 103°40'7 9.1
2016-Jul-14 23:32N 01°10' E 103°47'1010.4
2016-Jul-14 22:33N 01°14' E 103°57'3 2.1
2016-Jul-14 21:20N 01°17' E 103°58'0 0.0
2016-Jul-14 20:26N 01°17' E 103°58'0 0.0
2016-Jul-14 19:26N 01°17' E 103°58'0 0.0
2016-Jul-14 18:26N 01°17' E 103°58'0 0.0
2016-Jul-14 17:32N 01°17' E 103°58'0 0.0
2016-Jul-14 16:17N 01°17' E 103°58'0 0.0
2016-Jul-14 14:20N 01°17' E 103°58'0 0.0
2016-Jul-14 12:26N 01°17' E 103°58'0 0.1
2016-Jul-14 11:32N 01°17' E 103°58'0 0.1
2016-Jul-14 09:32N 01°17' E 103°58'0 0.0
2016-Jul-14 08:20N 01°17' E 103°58'0 0.0
2016-Jul-14 07:29N 01°17' E 103°58'1 1.3
2016-Jul-14 06:33N 01°15' E 103°57'5 4.7
2016-Jul-14 05:33N 01°16' E 104°02'  

Dump ship's entire track history